sensor_id;sensor_type;location;lat;lon;timestamp;temperature;humidity
24338;DHT22;12457;50.832;4.346;2022-12-10T00:00:22;1.10;99.90
24338;DHT22;12457;50.832;4.346;2022-12-10T00:02:47;1.20;99.90
24338;DHT22;12457;50.832;4.346;2022-12-10T00:05:13;1.30;99.90
24338;DHT22;12457;50.832;4.346;2022-12-10T00:07:42;1.40;99.90
24338;DHT22;12457;50.832;4.346;2022-12-10T00:10:12;1.30;99.90
24338;DHT22;12457;50.832;4.346;2022-12-10T00:12:38;1.30;99.90
24338;DHT22;12457;50.832;4.346;2022-12-10T00:15:07;1.30;99.90
24338;DHT22;12457;50.832;4.346;2022-12-10T00:17:33;1.30;99.90
24338;DHT22;12457;50.832;4.346;2022-12-10T00:20:02;1.20;99.90
24338;DHT22;12457;50.832;4.346;2022-12-10T00:22:27;1.10;99.90
24338;DHT22;12457;50.832;4.346;2022-12-10T00:24:56;1.00;99.90
24338;DHT22;12457;50.832;4.346;2022-12-10T00:27:22;1.10;99.90
24338;DHT22;12457;50.832;4.346;2022-12-10T00:29:47;1.00;99.90
24338;DHT22;12457;50.832;4.346;2022-12-10T00:32:13;1.20;99.90
24338;DHT22;12457;50.832;4.346;2022-12-10T00:34:38;1.30;99.90
24338;DHT22;12457;50.832;4.346;2022-12-10T00:37:04;1.20;99.90
24338;DHT22;12457;50.832;4.346;2022-12-10T00:39:30;1.30;99.90
24338;DHT22;12457;50.832;4.346;2022-12-10T00:41:55;1.20;99.90
24338;DHT22;12457;50.832;4.346;2022-12-10T00:44:22;1.30;99.90
24338;DHT22;12457;50.832;4.346;2022-12-10T00:46:48;1.30;99.90
24338;DHT22;12457;50.832;4.346;2022-12-10T00:49:13;1.30;99.90
24338;DHT22;12457;50.832;4.346;2022-12-10T00:51:39;1.30;99.90
24338;DHT22;12457;50.832;4.346;2022-12-10T00:54:05;1.30;99.90
24338;DHT22;12457;50.832;4.346;2022-12-10T00:56:32;1.30;99.90
24338;DHT22;12457;50.832;4.346;2022-12-10T00:58:59;1.30;99.90
24338;DHT22;12457;50.832;4.346;2022-12-10T01:01:30;1.30;99.90
24338;DHT22;12457;50.832;4.346;2022-12-10T01:04:01;1.10;99.90
24338;DHT22;12457;50.832;4.346;2022-12-10T01:06:35;1.10;99.90
24338;DHT22;12457;50.832;4.346;2022-12-10T01:09:03;1.00;99.90
24338;DHT22;12457;50.832;4.346;2022-12-10T01:11:32;1.10;99.90
24338;DHT22;12457;50.832;4.346;2022-12-10T01:13:59;1.10;99.90
24338;DHT22;12457;50.832;4.346;2022-12-10T01:16:25;1.10;99.90
24338;DHT22;12457;50.832;4.346;2022-12-10T01:18:56;1.10;99.90
24338;DHT22;12457;50.832;4.346;2022-12-10T01:21:22;1.10;99.90
24338;DHT22;12457;50.832;4.346;2022-12-10T01:23:50;1.10;99.90
24338;DHT22;12457;50.832;4.346;2022-12-10T01:26:22;1.10;99.90
24338;DHT22;12457;50.832;4.346;2022-12-10T01:28:48;1.10;99.90
24338;DHT22;12457;50.832;4.346;2022-12-10T01:31:32;1.20;99.90
24338;DHT22;12457;50.832;4.346;2022-12-10T01:33:58;1.10;99.90
24338;DHT22;12457;50.832;4.346;2022-12-10T01:36:30;1.10;99.90
24338;DHT22;12457;50.832;4.346;2022-12-10T01:38:56;1.10;99.90
24338;DHT22;12457;50.832;4.346;2022-12-10T01:41:28;1.00;99.90
24338;DHT22;12457;50.832;4.346;2022-12-10T01:46:38;1.00;99.90
24338;DHT22;12457;50.832;4.346;2022-12-10T01:49:21;1.00;99.90
24338;DHT22;12457;50.832;4.346;2022-12-10T01:51:50;1.10;99.90
24338;DHT22;12457;50.832;4.346;2022-12-10T01:54:20;1.10;99.90
24338;DHT22;12457;50.832;4.346;2022-12-10T01:56:50;1.20;99.90
24338;DHT22;12457;50.832;4.346;2022-12-10T01:59:18;1.10;99.90
24338;DHT22;12457;50.832;4.346;2022-12-10T02:10:38;1.10;99.90
24338;DHT22;12457;50.832;4.346;2022-12-10T02:13:14;1.00;99.90
24338;DHT22;12457;50.832;4.346;2022-12-10T02:15:54;1.10;99.90
24338;DHT22;12457;50.832;4.346;2022-12-10T02:18:56;0.90;99.90
24338;DHT22;12457;50.832;4.346;2022-12-10T02:21:30;1.00;99.90
24338;DHT22;12457;50.832;4.346;2022-12-10T02:24:02;1.00;99.90
24338;DHT22;12457;50.832;4.346;2022-12-10T02:26:44;1.00;99.90
24338;DHT22;12457;50.832;4.346;2022-12-10T02:29:19;1.10;99.90
24338;DHT22;12457;50.832;4.346;2022-12-10T02:31:59;1.00;99.90
24338;DHT22;12457;50.832;4.346;2022-12-10T02:34:37;1.10;99.90
24338;DHT22;12457;50.832;4.346;2022-12-10T02:37:06;0.90;99.90
24338;DHT22;12457;50.832;4.346;2022-12-10T02:39:37;0.90;99.90
24338;DHT22;12457;50.832;4.346;2022-12-10T02:42:05;0.80;99.90
24338;DHT22;12457;50.832;4.346;2022-12-10T02:44:33;0.80;99.90
24338;DHT22;12457;50.832;4.346;2022-12-10T02:47:02;0.90;99.90
24338;DHT22;12457;50.832;4.346;2022-12-10T02:49:28;0.90;99.90
24338;DHT22;12457;50.832;4.346;2022-12-10T02:51:55;1.00;99.90
24338;DHT22;12457;50.832;4.346;2022-12-10T02:54:36;1.10;99.90
24338;DHT22;12457;50.832;4.346;2022-12-10T03:05:20;1.30;99.90
24338;DHT22;12457;50.832;4.346;2022-12-10T03:07:58;1.30;99.90
24338;DHT22;12457;50.832;4.346;2022-12-10T03:13:03;1.10;99.90
24338;DHT22;12457;50.832;4.346;2022-12-10T03:15:34;0.80;99.90
24338;DHT22;12457;50.832;4.346;2022-12-10T03:18:02;0.80;99.90
24338;DHT22;12457;50.832;4.346;2022-12-10T03:20:31;0.80;99.90
24338;DHT22;12457;50.832;4.346;2022-12-10T03:22:57;0.80;99.90
24338;DHT22;12457;50.832;4.346;2022-12-10T03:25:25;0.80;99.90
24338;DHT22;12457;50.832;4.346;2022-12-10T03:27:54;0.80;99.90
24338;DHT22;12457;50.832;4.346;2022-12-10T03:30:20;0.90;99.90
24338;DHT22;12457;50.832;4.346;2022-12-10T03:32:46;0.90;99.90
24338;DHT22;12457;50.832;4.346;2022-12-10T03:35:13;0.90;99.90
24338;DHT22;12457;50.832;4.346;2022-12-10T03:37:40;0.90;99.90
24338;DHT22;12457;50.832;4.346;2022-12-10T03:40:06;0.90;99.90
24338;DHT22;12457;50.832;4.346;2022-12-10T03:42:36;0.80;99.90
24338;DHT22;12457;50.832;4.346;2022-12-10T03:45:02;0.80;99.90
24338;DHT22;12457;50.832;4.346;2022-12-10T03:47:27;0.80;99.90
24338;DHT22;12457;50.832;4.346;2022-12-10T03:49:53;0.80;99.90
24338;DHT22;12457;50.832;4.346;2022-12-10T03:52:19;0.80;99.90
24338;DHT22;12457;50.832;4.346;2022-12-10T03:54:44;0.80;99.90
24338;DHT22;12457;50.832;4.346;2022-12-10T03:57:10;0.70;99.90
24338;DHT22;12457;50.832;4.346;2022-12-10T03:59:36;0.80;99.90
24338;DHT22;12457;50.832;4.346;2022-12-10T04:02:01;0.80;99.90
24338;DHT22;12457;50.832;4.346;2022-12-10T04:04:27;0.80;99.90
24338;DHT22;12457;50.832;4.346;2022-12-10T04:06:53;0.80;99.90
24338;DHT22;12457;50.832;4.346;2022-12-10T04:09:18;0.80;99.90
24338;DHT22;12457;50.832;4.346;2022-12-10T04:11:44;0.90;99.90
24338;DHT22;12457;50.832;4.346;2022-12-10T04:14:11;1.00;99.90
24338;DHT22;12457;50.832;4.346;2022-12-10T04:16:56;1.00;99.90
24338;DHT22;12457;50.832;4.346;2022-12-10T04:19:23;0.90;99.90
24338;DHT22;12457;50.832;4.346;2022-12-10T04:21:48;0.80;99.90
24338;DHT22;12457;50.832;4.346;2022-12-10T04:24:34;0.80;99.90
24338;DHT22;12457;50.832;4.346;2022-12-10T04:27:28;0.80;99.90
24338;DHT22;12457;50.832;4.346;2022-12-10T04:29:55;0.80;99.90
24338;DHT22;12457;50.832;4.346;2022-12-10T04:32:22;0.70;99.90
24338;DHT22;12457;50.832;4.346;2022-12-10T04:34:48;0.70;99.90
24338;DHT22;12457;50.832;4.346;2022-12-10T04:37:14;0.70;99.90
24338;DHT22;12457;50.832;4.346;2022-12-10T04:39:40;0.70;99.90
24338;DHT22;12457;50.832;4.346;2022-12-10T04:42:06;0.60;99.90
24338;DHT22;12457;50.832;4.346;2022-12-10T04:44:32;0.70;99.90
24338;DHT22;12457;50.832;4.346;2022-12-10T04:46:58;0.70;99.90
24338;DHT22;12457;50.832;4.346;2022-12-10T04:49:24;0.80;99.90
24338;DHT22;12457;50.832;4.346;2022-12-10T04:51:50;0.80;99.90
24338;DHT22;12457;50.832;4.346;2022-12-10T04:54:16;0.90;99.90
24338;DHT22;12457;50.832;4.346;2022-12-10T04:56:42;0.80;99.90
24338;DHT22;12457;50.832;4.346;2022-12-10T04:59:09;0.90;99.90
24338;DHT22;12457;50.832;4.346;2022-12-10T05:01:35;1.10;99.90
24338;DHT22;12457;50.832;4.346;2022-12-10T05:04:02;1.00;99.90
24338;DHT22;12457;50.832;4.346;2022-12-10T05:06:29;1.00;99.90
24338;DHT22;12457;50.832;4.346;2022-12-10T05:08:55;1.00;99.90
24338;DHT22;12457;50.832;4.346;2022-12-10T05:11:22;0.90;99.90
24338;DHT22;12457;50.832;4.346;2022-12-10T05:13:50;0.70;99.90
24338;DHT22;12457;50.832;4.346;2022-12-10T05:16:17;0.70;99.90
24338;DHT22;12457;50.832;4.346;2022-12-10T05:18:44;0.80;99.90
24338;DHT22;12457;50.832;4.346;2022-12-10T05:21:12;0.90;99.90
24338;DHT22;12457;50.832;4.346;2022-12-10T05:23:41;1.00;99.90
24338;DHT22;12457;50.832;4.346;2022-12-10T05:26:10;1.00;99.90
24338;DHT22;12457;50.832;4.346;2022-12-10T05:28:38;0.90;99.90
24338;DHT22;12457;50.832;4.346;2022-12-10T05:31:05;0.90;99.90
24338;DHT22;12457;50.832;4.346;2022-12-10T05:33:31;0.80;99.90
24338;DHT22;12457;50.832;4.346;2022-12-10T05:36:00;0.80;99.90
24338;DHT22;12457;50.832;4.346;2022-12-10T05:38:27;0.70;99.90
24338;DHT22;12457;50.832;4.346;2022-12-10T05:40:53;0.80;99.90
24338;DHT22;12457;50.832;4.346;2022-12-10T05:43:19;0.90;99.90
24338;DHT22;12457;50.832;4.346;2022-12-10T05:45:45;0.80;99.90
24338;DHT22;12457;50.832;4.346;2022-12-10T05:48:13;0.80;99.90
24338;DHT22;12457;50.832;4.346;2022-12-10T05:50:40;0.90;99.90
24338;DHT22;12457;50.832;4.346;2022-12-10T05:53:06;0.90;99.90
24338;DHT22;12457;50.832;4.346;2022-12-10T05:55:32;0.80;99.90
24338;DHT22;12457;50.832;4.346;2022-12-10T05:57:59;0.90;99.90
24338;DHT22;12457;50.832;4.346;2022-12-10T06:00:25;0.80;99.90
24338;DHT22;12457;50.832;4.346;2022-12-10T06:02:51;0.70;99.90
24338;DHT22;12457;50.832;4.346;2022-12-10T06:05:17;0.90;99.90
24338;DHT22;12457;50.832;4.346;2022-12-10T06:07:43;0.80;99.90
24338;DHT22;12457;50.832;4.346;2022-12-10T06:10:08;0.80;99.90
24338;DHT22;12457;50.832;4.346;2022-12-10T06:12:34;0.80;99.90
24338;DHT22;12457;50.832;4.346;2022-12-10T06:15:00;0.80;99.90
24338;DHT22;12457;50.832;4.346;2022-12-10T06:17:25;0.90;99.90
24338;DHT22;12457;50.832;4.346;2022-12-10T06:19:51;0.90;99.90
24338;DHT22;12457;50.832;4.346;2022-12-10T06:22:17;0.90;99.90
24338;DHT22;12457;50.832;4.346;2022-12-10T06:24:42;1.00;99.90
24338;DHT22;12457;50.832;4.346;2022-12-10T06:27:08;1.00;99.90
24338;DHT22;12457;50.832;4.346;2022-12-10T06:29:34;1.00;99.90
24338;DHT22;12457;50.832;4.346;2022-12-10T06:32:00;1.00;99.90
24338;DHT22;12457;50.832;4.346;2022-12-10T06:34:25;0.90;99.90
24338;DHT22;12457;50.832;4.346;2022-12-10T06:36:52;1.00;99.90
24338;DHT22;12457;50.832;4.346;2022-12-10T06:39:18;0.90;99.90
24338;DHT22;12457;50.832;4.346;2022-12-10T06:41:44;0.80;99.90
24338;DHT22;12457;50.832;4.346;2022-12-10T06:44:11;0.80;99.90
24338;DHT22;12457;50.832;4.346;2022-12-10T06:46:38;0.80;99.90
24338;DHT22;12457;50.832;4.346;2022-12-10T06:49:04;0.90;99.90
24338;DHT22;12457;50.832;4.346;2022-12-10T06:51:31;0.90;99.90
24338;DHT22;12457;50.832;4.346;2022-12-10T06:53:57;0.90;99.90
24338;DHT22;12457;50.832;4.346;2022-12-10T06:56:22;0.90;99.90
24338;DHT22;12457;50.832;4.346;2022-12-10T06:58:48;0.90;99.90
24338;DHT22;12457;50.832;4.346;2022-12-10T07:01:19;0.80;99.90
24338;DHT22;12457;50.832;4.346;2022-12-10T07:03:50;0.90;99.90
24338;DHT22;12457;50.832;4.346;2022-12-10T07:06:17;0.90;99.90
24338;DHT22;12457;50.832;4.346;2022-12-10T07:08:43;0.90;99.90
24338;DHT22;12457;50.832;4.346;2022-12-10T07:11:13;0.90;99.90
24338;DHT22;12457;50.832;4.346;2022-12-10T07:13:40;0.90;99.90
24338;DHT22;12457;50.832;4.346;2022-12-10T07:16:13;1.00;99.90
24338;DHT22;12457;50.832;4.346;2022-12-10T07:18:39;1.00;99.90
24338;DHT22;12457;50.832;4.346;2022-12-10T07:21:23;0.90;99.90
24338;DHT22;12457;50.832;4.346;2022-12-10T07:23:50;0.90;99.90
24338;DHT22;12457;50.832;4.346;2022-12-10T07:26:16;0.90;99.90
24338;DHT22;12457;50.832;4.346;2022-12-10T07:28:42;0.80;99.90
24338;DHT22;12457;50.832;4.346;2022-12-10T07:31:08;0.70;99.90
24338;DHT22;12457;50.832;4.346;2022-12-10T07:33:35;0.60;99.90
24338;DHT22;12457;50.832;4.346;2022-12-10T07:36:09;0.50;99.90
24338;DHT22;12457;50.832;4.346;2022-12-10T07:38:35;0.50;99.90
24338;DHT22;12457;50.832;4.346;2022-12-10T07:41:05;0.50;99.90
24338;DHT22;12457;50.832;4.346;2022-12-10T07:43:34;0.60;99.90
24338;DHT22;12457;50.832;4.346;2022-12-10T07:46:11;0.60;99.90
24338;DHT22;12457;50.832;4.346;2022-12-10T07:48:39;0.60;99.90
24338;DHT22;12457;50.832;4.346;2022-12-10T07:51:05;0.60;99.90
24338;DHT22;12457;50.832;4.346;2022-12-10T07:53:31;0.70;99.90
24338;DHT22;12457;50.832;4.346;2022-12-10T07:56:29;0.70;99.90
24338;DHT22;12457;50.832;4.346;2022-12-10T07:59:34;0.70;99.90
24338;DHT22;12457;50.832;4.346;2022-12-10T08:02:09;0.70;99.90
24338;DHT22;12457;50.832;4.346;2022-12-10T08:04:34;0.70;99.90
24338;DHT22;12457;50.832;4.346;2022-12-10T08:07:00;0.70;99.90
24338;DHT22;12457;50.832;4.346;2022-12-10T08:09:29;0.60;99.90
24338;DHT22;12457;50.832;4.346;2022-12-10T08:11:55;0.80;99.90
24338;DHT22;12457;50.832;4.346;2022-12-10T08:14:20;0.70;99.90
24338;DHT22;12457;50.832;4.346;2022-12-10T08:16:46;0.60;99.90
24338;DHT22;12457;50.832;4.346;2022-12-10T08:19:12;0.60;99.90
24338;DHT22;12457;50.832;4.346;2022-12-10T08:21:38;0.70;99.90
24338;DHT22;12457;50.832;4.346;2022-12-10T08:24:04;0.70;99.90
24338;DHT22;12457;50.832;4.346;2022-12-10T08:26:31;0.80;99.90
24338;DHT22;12457;50.832;4.346;2022-12-10T08:28:58;0.90;99.90
24338;DHT22;12457;50.832;4.346;2022-12-10T08:31:25;0.90;99.90
24338;DHT22;12457;50.832;4.346;2022-12-10T08:33:51;0.90;99.90
24338;DHT22;12457;50.832;4.346;2022-12-10T08:36:18;0.80;99.90
24338;DHT22;12457;50.832;4.346;2022-12-10T08:38:45;0.80;99.90
24338;DHT22;12457;50.832;4.346;2022-12-10T08:41:22;0.60;99.90
24338;DHT22;12457;50.832;4.346;2022-12-10T08:43:51;0.60;99.90
24338;DHT22;12457;50.832;4.346;2022-12-10T08:46:17;0.60;99.90
24338;DHT22;12457;50.832;4.346;2022-12-10T08:48:43;0.60;99.90
24338;DHT22;12457;50.832;4.346;2022-12-10T08:51:13;0.50;99.90
24338;DHT22;12457;50.832;4.346;2022-12-10T08:53:40;0.60;99.90
24338;DHT22;12457;50.832;4.346;2022-12-10T08:56:09;0.80;99.90
24338;DHT22;12457;50.832;4.346;2022-12-10T08:58:36;0.90;99.90
24338;DHT22;12457;50.832;4.346;2022-12-10T09:01:10;0.90;99.90
24338;DHT22;12457;50.832;4.346;2022-12-10T09:03:39;1.00;99.90
24338;DHT22;12457;50.832;4.346;2022-12-10T09:06:07;1.00;99.90
24338;DHT22;12457;50.832;4.346;2022-12-10T09:08:33;0.90;99.90
24338;DHT22;12457;50.832;4.346;2022-12-10T09:11:14;0.80;99.90
24338;DHT22;12457;50.832;4.346;2022-12-10T09:13:40;0.80;99.90
24338;DHT22;12457;50.832;4.346;2022-12-10T09:16:06;0.80;99.90
24338;DHT22;12457;50.832;4.346;2022-12-10T09:18:32;0.90;99.90
24338;DHT22;12457;50.832;4.346;2022-12-10T09:21:09;1.00;99.90
24338;DHT22;12457;50.832;4.346;2022-12-10T09:23:35;1.10;99.90
24338;DHT22;12457;50.832;4.346;2022-12-10T09:26:05;1.10;99.90
24338;DHT22;12457;50.832;4.346;2022-12-10T09:28:31;1.10;99.90
24338;DHT22;12457;50.832;4.346;2022-12-10T09:31:00;1.10;99.90
24338;DHT22;12457;50.832;4.346;2022-12-10T09:33:27;1.10;99.90
24338;DHT22;12457;50.832;4.346;2022-12-10T09:35:53;1.10;99.90
24338;DHT22;12457;50.832;4.346;2022-12-10T09:38:19;1.10;99.90
24338;DHT22;12457;50.832;4.346;2022-12-10T09:40:56;1.20;99.90
24338;DHT22;12457;50.832;4.346;2022-12-10T09:49:21;1.10;99.90
24338;DHT22;12457;50.832;4.346;2022-12-10T09:51:50;1.00;99.90
24338;DHT22;12457;50.832;4.346;2022-12-10T09:54:27;1.00;99.90
24338;DHT22;12457;50.832;4.346;2022-12-10T09:56:55;1.10;99.90
24338;DHT22;12457;50.832;4.346;2022-12-10T09:59:46;1.20;99.90
24338;DHT22;12457;50.832;4.346;2022-12-10T10:02:24;1.10;99.90
24338;DHT22;12457;50.832;4.346;2022-12-10T10:04:54;1.20;99.90
24338;DHT22;12457;50.832;4.346;2022-12-10T10:07:25;1.30;99.90
24338;DHT22;12457;50.832;4.346;2022-12-10T10:10:04;1.30;99.90
24338;DHT22;12457;50.832;4.346;2022-12-10T10:12:33;1.20;99.90
24338;DHT22;12457;50.832;4.346;2022-12-10T10:15:09;1.20;99.90
24338;DHT22;12457;50.832;4.346;2022-12-10T10:17:36;1.20;99.90
24338;DHT22;12457;50.832;4.346;2022-12-10T10:20:03;1.10;99.90
24338;DHT22;12457;50.832;4.346;2022-12-10T10:22:29;1.20;99.90
24338;DHT22;12457;50.832;4.346;2022-12-10T10:24:56;1.30;99.90
24338;DHT22;12457;50.832;4.346;2022-12-10T10:27:28;1.40;99.90
24338;DHT22;12457;50.832;4.346;2022-12-10T10:29:56;1.50;99.90
24338;DHT22;12457;50.832;4.346;2022-12-10T10:32:28;1.70;99.90
24338;DHT22;12457;50.832;4.346;2022-12-10T10:38:07;1.80;99.90
24338;DHT22;12457;50.832;4.346;2022-12-10T10:40:40;1.90;99.90
24338;DHT22;12457;50.832;4.346;2022-12-10T10:43:06;2.00;99.90
24338;DHT22;12457;50.832;4.346;2022-12-10T10:45:39;2.00;99.90
24338;DHT22;12457;50.832;4.346;2022-12-10T10:48:18;2.00;99.90
24338;DHT22;12457;50.832;4.346;2022-12-10T10:50:48;2.00;99.90
24338;DHT22;12457;50.832;4.346;2022-12-10T10:55:57;1.90;99.90
24338;DHT22;12457;50.832;4.346;2022-12-10T10:58:25;1.90;99.90
24338;DHT22;12457;50.832;4.346;2022-12-10T11:01:04;1.80;99.90
24338;DHT22;12457;50.832;4.346;2022-12-10T11:03:32;1.80;99.90
24338;DHT22;12457;50.832;4.346;2022-12-10T11:05:59;1.70;99.90
24338;DHT22;12457;50.832;4.346;2022-12-10T11:08:29;1.70;99.90
24338;DHT22;12457;50.832;4.346;2022-12-10T11:10:58;1.90;99.90
24338;DHT22;12457;50.832;4.346;2022-12-10T11:13:30;1.90;99.90
24338;DHT22;12457;50.832;4.346;2022-12-10T11:16:26;2.10;99.90
24338;DHT22;12457;50.832;4.346;2022-12-10T11:18:56;2.10;99.90
24338;DHT22;12457;50.832;4.346;2022-12-10T11:21:28;1.90;99.90
24338;DHT22;12457;50.832;4.346;2022-12-10T11:23:55;2.00;99.90
24338;DHT22;12457;50.832;4.346;2022-12-10T11:32:38;2.10;99.90
24338;DHT22;12457;50.832;4.346;2022-12-10T11:40:54;2.30;99.90
24338;DHT22;12457;50.832;4.346;2022-12-10T11:57:06;2.60;99.90
24338;DHT22;12457;50.832;4.346;2022-12-10T11:59:59;2.70;99.90
24338;DHT22;12457;50.832;4.346;2022-12-10T12:05:57;2.70;99.90
24338;DHT22;12457;50.832;4.346;2022-12-10T12:14:16;3.00;99.90
24338;DHT22;12457;50.832;4.346;2022-12-10T12:19:53;2.60;99.90
24338;DHT22;12457;50.832;4.346;2022-12-10T12:22:25;2.70;99.90
24338;DHT22;12457;50.832;4.346;2022-12-10T12:25:08;2.80;99.90
24338;DHT22;12457;50.832;4.346;2022-12-10T12:27:45;2.80;99.90
24338;DHT22;12457;50.832;4.346;2022-12-10T12:30:19;2.70;99.90
24338;DHT22;12457;50.832;4.346;2022-12-10T12:33:25;2.70;99.90
24338;DHT22;12457;50.832;4.346;2022-12-10T12:35:57;2.60;99.90
24338;DHT22;12457;50.832;4.346;2022-12-10T12:38:37;2.80;99.90
24338;DHT22;12457;50.832;4.346;2022-12-10T12:46:15;2.80;99.90
24338;DHT22;12457;50.832;4.346;2022-12-10T12:48:56;2.80;99.90
24338;DHT22;12457;50.832;4.346;2022-12-10T12:51:45;2.80;99.90
24338;DHT22;12457;50.832;4.346;2022-12-10T12:54:13;2.70;99.90
24338;DHT22;12457;50.832;4.346;2022-12-10T12:56:59;2.80;99.90
24338;DHT22;12457;50.832;4.346;2022-12-10T13:03:00;2.50;99.90
24338;DHT22;12457;50.832;4.346;2022-12-10T13:05:36;2.60;99.90
24338;DHT22;12457;50.832;4.346;2022-12-10T13:08:21;2.70;99.90
24338;DHT22;12457;50.832;4.346;2022-12-10T13:15:55;2.80;99.90
24338;DHT22;12457;50.832;4.346;2022-12-10T13:18:33;2.80;99.90
24338;DHT22;12457;50.832;4.346;2022-12-10T13:21:31;2.80;99.90
24338;DHT22;12457;50.832;4.346;2022-12-10T13:24:12;2.90;99.90
24338;DHT22;12457;50.832;4.346;2022-12-10T13:29:55;2.70;99.90
24338;DHT22;12457;50.832;4.346;2022-12-10T13:48:54;2.80;99.90
24338;DHT22;12457;50.832;4.346;2022-12-10T14:08:00;2.80;99.90
24338;DHT22;12457;50.832;4.346;2022-12-10T14:10:34;2.90;99.90
24338;DHT22;12457;50.832;4.346;2022-12-10T14:13:02;2.90;99.90
24338;DHT22;12457;50.832;4.346;2022-12-10T14:15:29;2.90;99.90
24338;DHT22;12457;50.832;4.346;2022-12-10T14:18:24;3.00;99.90
24338;DHT22;12457;50.832;4.346;2022-12-10T14:20:53;2.90;99.90
24338;DHT22;12457;50.832;4.346;2022-12-10T14:23:30;2.80;99.90
24338;DHT22;12457;50.832;4.346;2022-12-10T14:31:59;2.80;99.90
24338;DHT22;12457;50.832;4.346;2022-12-10T14:34:27;2.80;99.90
24338;DHT22;12457;50.832;4.346;2022-12-10T14:36:56;2.70;99.90
24338;DHT22;12457;50.832;4.346;2022-12-10T14:39:27;2.80;99.90
24338;DHT22;12457;50.832;4.346;2022-12-10T14:41:59;2.80;99.90
24338;DHT22;12457;50.832;4.346;2022-12-10T14:44:26;2.90;99.90
24338;DHT22;12457;50.832;4.346;2022-12-10T14:47:20;2.90;99.90
24338;DHT22;12457;50.832;4.346;2022-12-10T14:49:48;2.90;99.90
24338;DHT22;12457;50.832;4.346;2022-12-10T14:52:20;2.90;99.90
24338;DHT22;12457;50.832;4.346;2022-12-10T14:54:47;3.00;99.90
24338;DHT22;12457;50.832;4.346;2022-12-10T14:57:26;3.00;99.90
24338;DHT22;12457;50.832;4.346;2022-12-10T15:02:26;3.00;99.90
24338;DHT22;12457;50.832;4.346;2022-12-10T15:04:52;3.00;99.90
24338;DHT22;12457;50.832;4.346;2022-12-10T15:07:39;2.90;99.90
24338;DHT22;12457;50.832;4.346;2022-12-10T15:10:14;2.90;99.90
24338;DHT22;12457;50.832;4.346;2022-12-10T15:12:45;2.90;99.90
24338;DHT22;12457;50.832;4.346;2022-12-10T15:15:27;2.90;99.90
24338;DHT22;12457;50.832;4.346;2022-12-10T15:23:35;2.60;99.90
24338;DHT22;12457;50.832;4.346;2022-12-10T15:26:23;2.70;99.90
24338;DHT22;12457;50.832;4.346;2022-12-10T15:29:14;2.80;99.90
24338;DHT22;12457;50.832;4.346;2022-12-10T15:31:38;2.70;99.90
24338;DHT22;12457;50.832;4.346;2022-12-10T15:34:12;2.70;99.90
24338;DHT22;12457;50.832;4.346;2022-12-10T15:36:47;2.60;99.90
24338;DHT22;12457;50.832;4.346;2022-12-10T15:39:19;2.70;99.90
24338;DHT22;12457;50.832;4.346;2022-12-10T15:41:51;2.60;99.90
24338;DHT22;12457;50.832;4.346;2022-12-10T15:44:37;2.70;99.90
24338;DHT22;12457;50.832;4.346;2022-12-10T15:49:43;2.60;99.90
24338;DHT22;12457;50.832;4.346;2022-12-10T15:52:20;2.70;99.90
24338;DHT22;12457;50.832;4.346;2022-12-10T15:54:48;2.70;99.90
24338;DHT22;12457;50.832;4.346;2022-12-10T15:57:22;2.70;99.90
24338;DHT22;12457;50.832;4.346;2022-12-10T15:59:49;2.70;99.90
24338;DHT22;12457;50.832;4.346;2022-12-10T16:02:38;2.70;99.90
24338;DHT22;12457;50.832;4.346;2022-12-10T16:05:15;2.70;99.90
24338;DHT22;12457;50.832;4.346;2022-12-10T16:07:42;2.80;99.90
24338;DHT22;12457;50.832;4.346;2022-12-10T16:10:10;2.80;99.90
24338;DHT22;12457;50.832;4.346;2022-12-10T16:12:37;2.70;99.90
24338;DHT22;12457;50.832;4.346;2022-12-10T16:15:04;2.70;99.90
24338;DHT22;12457;50.832;4.346;2022-12-10T16:17:31;2.60;99.90
24338;DHT22;12457;50.832;4.346;2022-12-10T16:19:59;2.70;99.90
24338;DHT22;12457;50.832;4.346;2022-12-10T16:22:25;2.60;99.90
24338;DHT22;12457;50.832;4.346;2022-12-10T16:24:50;2.60;99.90
24338;DHT22;12457;50.832;4.346;2022-12-10T16:27:17;2.50;99.90
24338;DHT22;12457;50.832;4.346;2022-12-10T16:29:43;2.60;99.90
24338;DHT22;12457;50.832;4.346;2022-12-10T16:32:10;2.50;99.90
24338;DHT22;12457;50.832;4.346;2022-12-10T16:34:36;2.60;99.90
24338;DHT22;12457;50.832;4.346;2022-12-10T16:37:02;2.70;99.90
24338;DHT22;12457;50.832;4.346;2022-12-10T16:39:28;2.70;99.90
24338;DHT22;12457;50.832;4.346;2022-12-10T16:41:54;2.60;99.90
24338;DHT22;12457;50.832;4.346;2022-12-10T16:44:20;2.60;99.90
24338;DHT22;12457;50.832;4.346;2022-12-10T16:46:46;2.70;99.90
24338;DHT22;12457;50.832;4.346;2022-12-10T16:49:12;2.50;99.90
24338;DHT22;12457;50.832;4.346;2022-12-10T16:51:38;2.40;99.90
24338;DHT22;12457;50.832;4.346;2022-12-10T16:54:04;2.50;99.90
24338;DHT22;12457;50.832;4.346;2022-12-10T16:56:30;2.40;99.90
24338;DHT22;12457;50.832;4.346;2022-12-10T16:58:56;2.40;99.90
24338;DHT22;12457;50.832;4.346;2022-12-10T17:01:27;2.40;99.90
24338;DHT22;12457;50.832;4.346;2022-12-10T17:03:54;2.50;99.90
24338;DHT22;12457;50.832;4.346;2022-12-10T17:06:21;2.50;99.90
24338;DHT22;12457;50.832;4.346;2022-12-10T17:08:47;2.50;99.90
24338;DHT22;12457;50.832;4.346;2022-12-10T17:14:00;2.40;99.90
24338;DHT22;12457;50.832;4.346;2022-12-10T17:16:28;2.40;99.90
24338;DHT22;12457;50.832;4.346;2022-12-10T17:18:54;2.40;99.90
24338;DHT22;12457;50.832;4.346;2022-12-10T17:21:20;2.40;99.90
24338;DHT22;12457;50.832;4.346;2022-12-10T17:23:46;2.40;99.90
24338;DHT22;12457;50.832;4.346;2022-12-10T17:26:27;2.50;99.90
24338;DHT22;12457;50.832;4.346;2022-12-10T17:28:59;2.40;99.90
24338;DHT22;12457;50.832;4.346;2022-12-10T17:31:25;2.50;99.90
24338;DHT22;12457;50.832;4.346;2022-12-10T17:33:51;2.50;99.90
24338;DHT22;12457;50.832;4.346;2022-12-10T17:36:17;2.40;99.90
24338;DHT22;12457;50.832;4.346;2022-12-10T17:38:43;2.50;99.90
24338;DHT22;12457;50.832;4.346;2022-12-10T17:41:10;2.50;99.90
24338;DHT22;12457;50.832;4.346;2022-12-10T17:43:37;2.60;99.90
24338;DHT22;12457;50.832;4.346;2022-12-10T17:46:03;2.60;99.90
24338;DHT22;12457;50.832;4.346;2022-12-10T17:48:29;2.60;99.90
24338;DHT22;12457;50.832;4.346;2022-12-10T17:50:54;2.60;99.90
24338;DHT22;12457;50.832;4.346;2022-12-10T17:53:20;2.70;99.90
24338;DHT22;12457;50.832;4.346;2022-12-10T17:55:54;2.70;99.90
24338;DHT22;12457;50.832;4.346;2022-12-10T17:58:20;2.60;99.90
24338;DHT22;12457;50.832;4.346;2022-12-10T18:00:48;2.60;99.90
24338;DHT22;12457;50.832;4.346;2022-12-10T18:03:14;2.60;99.90
24338;DHT22;12457;50.832;4.346;2022-12-10T18:05:39;2.50;99.90
24338;DHT22;12457;50.832;4.346;2022-12-10T18:08:05;2.60;99.90
24338;DHT22;12457;50.832;4.346;2022-12-10T18:10:32;2.70;99.90
24338;DHT22;12457;50.832;4.346;2022-12-10T18:12:58;2.80;99.90
24338;DHT22;12457;50.832;4.346;2022-12-10T18:15:26;2.70;99.90
24338;DHT22;12457;50.832;4.346;2022-12-10T18:17:52;2.80;99.90
24338;DHT22;12457;50.832;4.346;2022-12-10T18:25:17;2.90;99.90
24338;DHT22;12457;50.832;4.346;2022-12-10T18:27:43;2.90;99.90